Time;durP1;ratioP1;P1;durP2;ratioP2;P2;SDS_P1;SDS_P2;PMS_P1;PMS_P2;Temp;Humidity;BMP_temperature;BMP_pressure;BME280_temperature;BME280_humidity;BME280_pressure;Samples;Min_cycle;Max_cycle;Signal;HPM_P1;HPM_P2
2024/03/16 00:00:46;;;;;;;332.63;124.80;;;10.60;99.90;;;;;;796587;180;26648;-82
2024/03/16 00:03:13;;;;;;;203.03;85.50;;;10.60;99.90;;;;;;798055;180;26446;-82
2024/03/16 00:05:39;;;;;;;192.30;70.13;;;10.60;99.90;;;;;;798369;180;26437;-82
2024/03/16 00:08:06;;;;;;;230.83;97.87;;;10.60;99.90;;;;;;799268;179;27109;-81
2024/03/16 00:10:33;;;;;;;219.93;87.50;;;10.50;99.90;;;;;;800852;179;26411;-81
2024/03/16 00:12:59;;;;;;;116.60;55.97;;;10.50;99.90;;;;;;800552;180;26982;-81
2024/03/16 00:15:26;;;;;;;155.50;65.30;;;10.50;99.90;;;;;;800697;179;26414;-81
2024/03/16 00:17:53;;;;;;;55.17;25.47;;;10.50;99.90;;;;;;800489;179;26418;-83
2024/03/16 00:20:19;;;;;;;118.20;49.67;;;10.40;99.90;;;;;;800561;180;26423;-83
2024/03/16 00:22:46;;;;;;;99.07;44.43;;;10.40;99.90;;;;;;800820;180;26427;-82
2024/03/16 00:25:14;;;;;;;193.83;75.90;;;10.40;99.90;;;;;;800946;180;26424;-82
2024/03/16 00:27:39;;;;;;;184.53;73.23;;;10.40;99.90;;;;;;800627;180;26422;-82
2024/03/16 00:30:07;;;;;;;101.63;44.43;;;10.40;99.90;;;;;;800658;180;26431;-82
2024/03/16 00:32:33;;;;;;;13.67;6.67;;;10.30;99.90;;;;;;800641;179;26418;-82
2024/03/16 00:35:00;;;;;;;28.93;14.67;;;10.40;99.90;;;;;;800506;180;26422;-81
2024/03/16 00:37:27;;;;;;;9.80;5.23;;;10.30;99.90;;;;;;800624;179;26420;-82
2024/03/16 00:39:54;;;;;;;17.70;8.67;;;10.40;99.90;;;;;;800561;180;26442;-82
2024/03/16 00:42:20;;;;;;;8.63;5.10;;;10.40;99.90;;;;;;799941;180;26410;-83
2024/03/16 00:44:47;;;;;;;11.83;6.60;;;10.40;99.90;;;;;;799981;178;28919;-81
2024/03/16 00:47:13;;;;;;;27.07;13.13;;;10.50;99.90;;;;;;800080;179;26933;-84
2024/03/16 00:49:40;;;;;;;127.03;54.83;;;10.50;99.90;;;;;;799952;180;26458;-82
2024/03/16 00:52:07;;;;;;;115.40;51.90;;;10.50;99.90;;;;;;800149;180;26415;-82
2024/03/16 00:54:33;;;;;;;98.67;44.53;;;10.50;99.90;;;;;;800128;180;26441;-81
2024/03/16 00:57:00;;;;;;;106.67;44.93;;;10.50;99.90;;;;;;800042;179;26419;-81
2024/03/16 00:59:28;;;;;;;81.40;38.03;;;10.50;99.90;;;;;;799743;180;26433;-81
2024/03/16 01:01:53;;;;;;;182.60;74.60;;;10.50;99.90;;;;;;799878;180;26423;-81
2024/03/16 01:04:20;;;;;;;164.33;72.77;;;10.50;99.90;;;;;;801722;177;26434;-81
2024/03/16 01:06:47;;;;;;;385.77;146.70;;;10.50;99.90;;;;;;802043;179;26419;-82
2024/03/16 01:09:16;;;;;;;166.20;70.13;;;10.40;99.90;;;;;;800813;179;26444;-83
2024/03/16 01:11:40;;;;;;;114.43;46.90;;;10.40;99.90;;;;;;800748;179;26436;-80
2024/03/16 01:14:08;;;;;;;111.77;49.53;;;10.40;99.90;;;;;;796370;179;26428;-82
2024/03/16 01:16:45;;;;;;;62.23;28.57;;;10.50;99.90;;;;;;795346;178;26415;-82
2024/03/16 01:19:12;;;;;;;44.00;20.10;;;10.50;99.90;;;;;;811894;175;26463;-80
2024/03/16 01:21:39;;;;;;;29.50;14.67;;;10.50;99.90;;;;;;814899;175;26414;-79
2024/03/16 01:24:05;;;;;;;17.33;6.83;;;10.50;99.90;;;;;;811333;176;26983;-80
2024/03/16 01:26:32;;;;;;;19.40;10.60;;;10.40;99.90;;;;;;816602;175;26434;-80
2024/03/16 01:29:00;;;;;;;16.83;8.80;;;10.40;99.90;;;;;;794861;179;26439;-80
2024/03/16 01:31:26;;;;;;;81.97;35.63;;;10.50;99.90;;;;;;796103;179;26957;-79
2024/03/16 01:33:52;;;;;;;16.77;8.27;;;10.50;99.90;;;;;;800062;179;26440;-81
2024/03/16 01:36:19;;;;;;;11.57;6.87;;;10.50;99.90;;;;;;796927;179;26432;-79
2024/03/16 01:38:45;;;;;;;8.20;4.70;;;10.50;99.90;;;;;;794302;179;26448;-79
2024/03/16 01:41:11;;;;;;;23.77;11.47;;;10.40;99.90;;;;;;798565;179;26472;-78
2024/03/16 01:43:38;;;;;;;10.83;4.70;;;10.50;99.90;;;;;;794629;179;26663;-81
2024/03/16 01:46:05;;;;;;;86.07;30.20;;;10.60;99.90;;;;;;774816;184;27038;-79
2024/03/16 01:48:31;;;;;;;45.53;18.77;;;10.60;99.90;;;;;;798568;179;26442;-79
2024/03/16 01:50:59;;;;;;;35.10;16.63;;;10.60;99.90;;;;;;791965;179;26455;-78
2024/03/16 01:53:26;;;;;;;26.73;12.47;;;10.50;99.90;;;;;;796053;179;26427;-80
2024/03/16 01:55:53;;;;;;;80.17;36.40;;;10.40;99.90;;;;;;799922;178;26510;-78
2024/03/16 01:58:19;;;;;;;120.80;54.40;;;10.30;99.90;;;;;;795179;179;26443;-80
2024/03/16 02:00:47;;;;;;;64.17;30.83;;;10.20;99.90;;;;;;798642;179;26432;-78
2024/03/16 02:03:12;;;;;;;24.63;11.23;;;10.20;99.90;;;;;;791870;179;26538;-79
2024/03/16 02:05:41;;;;;;;29.77;15.27;;;10.20;99.90;;;;;;791880;178;26467;-80
2024/03/16 02:08:06;;;;;;;13.63;6.43;;;10.20;99.90;;;;;;794129;179;26473;-76
2024/03/16 02:10:33;;;;;;;10.80;4.97;;;10.20;99.90;;;;;;798062;179;26488;-79
2024/03/16 02:13:00;;;;;;;14.73;7.03;;;10.20;99.90;;;;;;793047;179;26465;-79
2024/03/16 02:15:26;;;;;;;19.03;8.37;;;10.20;99.90;;;;;;796006;179;26479;-79
2024/03/16 02:17:53;;;;;;;17.43;6.77;;;10.20;99.90;;;;;;792213;178;26525;-78
2024/03/16 02:20:20;;;;;;;6.57;3.27;;;10.20;99.90;;;;;;795838;178;26491;-79
2024/03/16 02:22:48;;;;;;;8.43;4.00;;;10.20;99.90;;;;;;795979;178;26439;-79
2024/03/16 02:25:13;;;;;;;10.57;5.87;;;10.10;99.90;;;;;;790032;179;26431;-79
2024/03/16 02:27:39;;;;;;;12.83;5.63;;;10.20;99.90;;;;;;796216;179;26467;-79
2024/03/16 02:30:10;;;;;;;6.97;3.23;;;10.20;99.90;;;;;;795408;178;26431;-80
2024/03/16 02:32:36;;;;;;;16.10;6.53;;;10.20;99.90;;;;;;800212;178;26443;-78
2024/03/16 02:35:02;;;;;;;17.07;7.97;;;10.20;99.90;;;;;;795233;179;26440;-80
2024/03/16 02:37:29;;;;;;;7.73;4.20;;;10.20;99.90;;;;;;798882;178;26458;-80
2024/03/16 02:39:56;;;;;;;34.07;18.43;;;10.30;99.90;;;;;;794054;178;26451;-80
2024/03/16 02:42:22;;;;;;;21.50;10.60;;;10.30;99.90;;;;;;796608;179;26502;-80
2024/03/16 02:44:50;;;;;;;24.97;11.77;;;10.20;99.90;;;;;;797826;179;26440;-80
2024/03/16 02:47:16;;;;;;;7.23;3.77;;;10.30;99.90;;;;;;798180;179;26473;-78
2024/03/16 02:49:43;;;;;;;6.77;3.20;;;10.30;99.90;;;;;;798044;179;26461;-79
2024/03/16 02:52:10;;;;;;;10.30;3.77;;;10.30;99.90;;;;;;789462;179;27039;-79
2024/03/16 02:54:36;;;;;;;9.37;3.60;;;10.30;99.90;;;;;;795377;179;26452;-79
2024/03/16 02:57:03;;;;;;;9.00;3.87;;;10.30;99.90;;;;;;795338;178;27107;-79
2024/03/16 02:59:30;;;;;;;28.63;13.93;;;10.30;99.90;;;;;;800179;179;26459;-79
2024/03/16 03:01:57;;;;;;;34.83;14.93;;;10.30;99.90;;;;;;795066;178;26428;-79
2024/03/16 03:04:23;;;;;;;57.40;28.50;;;10.30;99.90;;;;;;795902;179;26440;-80
2024/03/16 03:06:49;;;;;;;53.97;26.10;;;10.30;99.90;;;;;;793561;179;26420;-80
2024/03/16 03:09:17;;;;;;;40.13;19.40;;;10.30;99.90;;;;;;794072;179;26422;-80
2024/03/16 03:11:42;;;;;;;15.07;6.20;;;10.40;99.90;;;;;;798610;179;26426;-79
2024/03/16 03:14:10;;;;;;;12.13;5.33;;;10.40;99.90;;;;;;800946;179;26426;-79
2024/03/16 03:16:36;;;;;;;16.47;5.90;;;10.40;99.90;;;;;;793804;179;26456;-80
2024/03/16 03:19:02;;;;;;;32.70;15.33;;;10.40;99.90;;;;;;803673;179;26960;-81
2024/03/16 03:21:31;;;;;;;20.80;11.30;;;10.50;99.90;;;;;;798530;179;26423;-81
2024/03/16 03:23:58;;;;;;;9.93;5.40;;;10.50;99.90;;;;;;794791;179;26472;-80
2024/03/16 03:26:23;;;;;;;10.53;5.97;;;10.40;99.90;;;;;;798594;177;26435;-81
2024/03/16 03:28:49;;;;;;;26.00;11.27;;;10.50;99.90;;;;;;801319;178;26436;-79
2024/03/16 03:31:16;;;;;;;17.63;7.53;;;10.50;99.90;;;;;;797994;176;26424;-82
2024/03/16 03:33:43;;;;;;;27.30;11.77;;;10.50;99.90;;;;;;803991;176;26443;-82
2024/03/16 03:36:09;;;;;;;17.03;8.97;;;10.50;99.90;;;;;;802660;177;26985;-79
2024/03/16 03:38:37;;;;;;;22.53;11.63;;;10.50;99.90;;;;;;796931;179;26470;-79
2024/03/16 03:41:04;;;;;;;19.93;9.73;;;10.50;99.90;;;;;;801302;179;26440;-79
2024/03/16 03:43:33;;;;;;;62.93;27.50;;;10.50;99.90;;;;;;798142;179;26549;-79
2024/03/16 03:45:57;;;;;;;31.47;15.03;;;10.50;99.90;;;;;;800225;179;26455;-80
2024/03/16 03:48:36;;;;;;;17.80;8.27;;;10.50;99.90;;;;;;797492;179;26442;-79
2024/03/16 03:50:54;;;;;;;15.60;8.37;;;10.50;99.90;;;;;;798628;179;26459;-80
2024/03/16 03:53:20;;;;;;;21.80;10.10;;;10.60;99.90;;;;;;789711;179;26571;-80
2024/03/16 03:55:47;;;;;;;28.67;13.63;;;10.60;99.90;;;;;;796863;179;26462;-80
2024/03/16 03:58:13;;;;;;;18.10;9.87;;;10.60;99.90;;;;;;801935;179;26685;-76
2024/03/16 04:00:40;;;;;;;48.73;26.23;;;10.60;99.90;;;;;;798351;179;26508;-79
2024/03/16 04:03:07;;;;;;;25.33;13.23;;;10.60;99.90;;;;;;791154;179;27014;-79
2024/03/16 04:05:33;;;;;;;21.73;11.40;;;10.60;99.90;;;;;;789948;179;26514;-80
2024/03/16 04:08:00;;;;;;;26.50;12.33;;;10.70;99.90;;;;;;799343;179;26538;-79
2024/03/16 04:10:26;;;;;;;16.90;8.83;;;10.70;99.90;;;;;;794835;179;26464;-79
2024/03/16 04:12:53;;;;;;;14.83;7.27;;;10.70;99.90;;;;;;794397;179;26437;-79
2024/03/16 04:15:20;;;;;;;16.93;7.30;;;10.70;99.90;;;;;;790301;179;26443;-80
2024/03/16 04:17:46;;;;;;;12.53;7.30;;;10.80;99.90;;;;;;797787;179;26594;-79
2024/03/16 04:20:13;;;;;;;13.90;6.87;;;10.80;99.90;;;;;;796085;179;26561;-80
2024/03/16 04:22:39;;;;;;;33.60;14.60;;;10.80;99.90;;;;;;802381;179;26418;-79
2024/03/16 04:25:08;;;;;;;65.40;24.40;;;10.80;99.90;;;;;;800383;179;27235;-80
2024/03/16 04:27:33;;;;;;;57.97;24.80;;;10.80;99.90;;;;;;792069;179;26459;-79
2024/03/16 04:30:00;;;;;;;37.63;17.07;;;10.90;99.90;;;;;;802050;179;26431;-79
2024/03/16 04:32:27;;;;;;;21.87;12.37;;;10.90;99.90;;;;;;799370;179;27021;-79
2024/03/16 04:34:54;;;;;;;12.37;7.73;;;10.90;99.90;;;;;;793815;180;26428;-80
2024/03/16 04:37:21;;;;;;;13.40;7.37;;;10.90;99.90;;;;;;789597;179;26508;-78
2024/03/16 04:39:47;;;;;;;14.90;6.63;;;10.90;99.90;;;;;;795874;177;26432;-80
2024/03/16 04:42:14;;;;;;;11.23;6.30;;;11.00;99.90;;;;;;799425;178;26440;-80
2024/03/16 04:44:40;;;;;;;13.20;5.07;;;10.90;99.90;;;;;;803068;179;26452;-80
2024/03/16 04:47:08;;;;;;;10.27;5.30;;;11.00;99.90;;;;;;797005;178;26464;-79
2024/03/16 04:49:34;;;;;;;12.67;4.87;;;11.00;99.90;;;;;;792103;179;27009;-79
2024/03/16 04:52:00;;;;;;;12.10;5.10;;;11.00;99.90;;;;;;798205;178;26435;-79
2024/03/16 04:54:27;;;;;;;10.07;4.47;;;11.00;99.90;;;;;;796748;178;26436;-80
2024/03/16 04:56:53;;;;;;;9.07;4.47;;;11.00;99.90;;;;;;797313;179;26502;-79
2024/03/16 04:59:20;;;;;;;10.53;4.90;;;11.00;99.90;;;;;;800835;179;26444;-80
2024/03/16 05:01:47;;;;;;;9.63;4.87;;;11.00;99.90;;;;;;798623;179;26436;-80
2024/03/16 05:04:13;;;;;;;9.00;5.20;;;11.00;99.90;;;;;;791750;179;26597;-80
2024/03/16 05:06:40;;;;;;;9.60;6.03;;;11.00;99.90;;;;;;798450;179;26463;-80
2024/03/16 05:09:08;;;;;;;7.43;4.73;;;11.10;99.90;;;;;;798626;178;26962;-78
2024/03/16 05:11:33;;;;;;;15.53;6.03;;;11.00;99.90;;;;;;798809;179;26419;-80
2024/03/16 05:14:01;;;;;;;11.50;5.27;;;11.00;99.90;;;;;;791129;179;27017;-78
2024/03/16 05:16:26;;;;;;;9.80;5.23;;;11.00;99.90;;;;;;795736;179;26562;-80
2024/03/16 05:18:53;;;;;;;11.90;5.93;;;10.90;99.90;;;;;;800104;179;26447;-80
2024/03/16 05:21:19;;;;;;;11.53;6.00;;;10.90;99.90;;;;;;797187;179;26456;-78
2024/03/16 05:23:46;;;;;;;16.17;8.67;;;10.80;99.90;;;;;;797831;179;26454;-77
2024/03/16 05:26:13;;;;;;;11.13;6.33;;;10.80;99.90;;;;;;800641;179;26438;-79
2024/03/16 05:28:39;;;;;;;11.43;6.73;;;10.80;99.90;;;;;;796459;179;26438;-78
2024/03/16 05:31:08;;;;;;;14.67;7.83;;;10.70;99.90;;;;;;802641;179;26431;-78
2024/03/16 05:33:33;;;;;;;16.20;7.73;;;10.70;99.90;;;;;;796746;179;26460;-78
2024/03/16 05:35:59;;;;;;;14.87;7.90;;;10.70;99.90;;;;;;798908;179;26431;-77
2024/03/16 05:38:25;;;;;;;13.77;6.73;;;10.70;99.90;;;;;;799810;178;26453;-78
2024/03/16 05:40:52;;;;;;;21.27;8.67;;;10.60;99.90;;;;;;797438;179;26432;-79
2024/03/16 05:43:19;;;;;;;16.97;7.90;;;10.60;99.90;;;;;;794168;179;26994;-79
2024/03/16 05:45:46;;;;;;;14.43;7.97;;;10.60;99.90;;;;;;796315;178;26444;-79
2024/03/16 05:48:12;;;;;;;17.40;7.67;;;10.60;99.90;;;;;;796485;179;26497;-78
2024/03/16 05:50:39;;;;;;;20.17;9.43;;;10.60;99.90;;;;;;797954;177;26435;-79
2024/03/16 05:53:05;;;;;;;13.90;7.40;;;10.60;99.90;;;;;;795294;178;26431;-80
2024/03/16 05:55:32;;;;;;;18.37;8.97;;;10.60;99.90;;;;;;795351;179;27112;-78
2024/03/16 05:57:58;;;;;;;17.57;8.57;;;10.60;99.90;;;;;;798379;178;26447;-79
2024/03/16 06:00:26;;;;;;;14.60;8.90;;;10.70;99.90;;;;;;797877;179;27044;-80
2024/03/16 06:02:52;;;;;;;15.03;8.47;;;10.60;99.90;;;;;;795946;178;26434;-79
2024/03/16 06:05:18;;;;;;;16.83;9.07;;;10.70;99.90;;;;;;794236;179;26427;-79
2024/03/16 06:07:45;;;;;;;14.40;8.47;;;10.70;99.90;;;;;;800510;178;26447;-79
2024/03/16 06:10:11;;;;;;;17.10;9.80;;;10.70;99.90;;;;;;798738;179;26471;-80
2024/03/16 06:12:38;;;;;;;19.07;9.80;;;10.70;99.90;;;;;;795589;179;26486;-77
2024/03/16 06:15:06;;;;;;;21.07;11.20;;;10.70;99.90;;;;;;792339;179;26512;-78
2024/03/16 06:17:33;;;;;;;27.80;11.80;;;10.70;99.90;;;;;;801748;178;26478;-79
2024/03/16 06:19:59;;;;;;;20.00;10.70;;;10.70;99.90;;;;;;796936;179;26483;-78
2024/03/16 06:22:25;;;;;;;23.33;11.57;;;10.70;99.90;;;;;;797352;179;26992;-80
2024/03/16 06:24:52;;;;;;;25.30;12.17;;;10.80;99.90;;;;;;794752;179;26626;-79
2024/03/16 06:27:21;;;;;;;26.97;13.60;;;10.80;99.90;;;;;;794522;179;26478;-79
2024/03/16 06:29:51;;;;;;;22.07;12.70;;;10.80;99.90;;;;;;792283;179;26477;-79
2024/03/16 06:32:20;;;;;;;22.33;11.60;;;10.90;99.90;;;;;;791084;179;26523;-79
2024/03/16 06:34:39;;;;;;;18.63;11.20;;;10.90;99.90;;;;;;787852;179;26431;-78
2024/03/16 06:37:05;;;;;;;22.23;11.27;;;10.90;99.90;;;;;;792185;179;27072;-79
2024/03/16 06:39:32;;;;;;;22.67;12.90;;;10.90;99.90;;;;;;798384;179;26467;-79
2024/03/16 06:41:58;;;;;;;22.20;10.97;;;10.90;99.90;;;;;;792536;179;26445;-78
2024/03/16 06:44:25;;;;;;;23.60;10.50;;;10.80;99.90;;;;;;795287;179;27025;-79
2024/03/16 06:46:52;;;;;;;21.17;10.43;;;10.70;99.90;;;;;;790858;179;26505;-79
2024/03/16 06:49:18;;;;;;;20.77;9.40;;;10.50;99.90;;;;;;796117;179;26605;-79
2024/03/16 06:51:45;;;;;;;15.93;8.27;;;10.30;99.90;;;;;;796880;179;26601;-79
2024/03/16 06:54:12;;;;;;;18.67;9.33;;;10.10;99.90;;;;;;797958;178;26424;-79
2024/03/16 06:56:39;;;;;;;19.67;9.37;;;10.00;99.90;;;;;;795904;179;26455;-80
2024/03/16 06:59:06;;;;;;;15.23;8.87;;;9.90;99.90;;;;;;793541;178;26985;-79
2024/03/16 07:01:33;;;;;;;16.80;8.63;;;9.80;99.90;;;;;;801418;177;26437;-79
2024/03/16 07:03:59;;;;;;;19.00;9.00;;;9.80;99.90;;;;;;800824;178;28082;-79
2024/03/16 07:06:26;;;;;;;18.17;9.17;;;9.70;99.90;;;;;;797461;178;26532;-78
2024/03/16 07:08:52;;;;;;;18.30;9.27;;;9.60;99.90;;;;;;789688;179;26533;-79
2024/03/16 07:11:19;;;;;;;20.23;10.57;;;9.70;99.90;;;;;;801204;178;26443;-78
2024/03/16 07:13:46;;;;;;;16.83;9.50;;;9.60;99.90;;;;;;795711;178;26458;-79
2024/03/16 07:16:13;;;;;;;16.90;9.00;;;9.70;99.90;;;;;;793327;178;26436;-78
2024/03/16 07:18:40;;;;;;;20.60;10.30;;;9.70;99.90;;;;;;798044;170;26481;-81
2024/03/16 07:21:11;;;;;;;16.07;9.20;;;9.90;99.90;;;;;;810393;177;26665;-77
2024/03/16 07:23:39;;;;;;;18.57;8.63;;;9.90;99.90;;;;;;795801;179;26531;-80
2024/03/16 07:26:09;;;;;;;19.53;9.77;;;9.90;99.90;;;;;;808993;177;27654;-79
2024/03/16 07:28:37;;;;;;;12.80;7.83;;;10.00;99.90;;;;;;801278;176;26510;-80
2024/03/16 07:31:09;;;;;;;17.17;9.33;;;9.90;99.90;;;;;;789777;179;26503;-79
2024/03/16 07:33:38;;;;;;;15.67;8.53;;;9.90;99.90;;;;;;791328;180;26464;-78
2024/03/16 07:36:10;;;;;;;18.90;9.33;;;9.80;99.90;;;;;;790707;179;26550;-80
2024/03/16 07:38:37;;;;;;;19.57;11.33;;;9.80;99.90;;;;;;792170;180;26531;-80
2024/03/16 07:41:08;;;;;;;17.30;10.70;;;9.90;99.90;;;;;;794889;180;26468;-82
2024/03/16 07:43:34;;;;;;;20.00;11.43;;;10.00;99.90;;;;;;796566;180;26457;-79
2024/03/16 07:46:06;;;;;;;17.27;10.77;;;9.90;99.90;;;;;;791298;180;26684;-81
2024/03/16 07:48:36;;;;;;;23.30;12.97;;;9.90;99.90;;;;;;796791;177;26472;-81
2024/03/16 07:51:05;;;;;;;19.87;11.33;;;9.90;99.90;;;;;;796487;180;26458;-79
2024/03/16 07:53:35;;;;;;;21.73;12.50;;;10.00;99.90;;;;;;793499;178;26508;-82
2024/03/16 07:56:09;;;;;;;15.50;9.83;;;10.10;99.90;;;;;;796953;179;26509;-82
2024/03/16 07:58:39;;;;;;;16.23;9.43;;;10.20;99.90;;;;;;789040;180;26450;-82
2024/03/16 08:01:10;;;;;;;21.90;11.20;;;10.10;99.90;;;;;;790993;179;26493;-83
2024/03/16 08:03:38;;;;;;;16.30;10.77;;;10.20;99.90;;;;;;784082;180;26512;-80
2024/03/16 08:06:13;;;;;;;18.03;10.67;;;10.10;99.90;;;;;;758353;184;26475;-81
2024/03/16 08:08:47;;;;;;;21.60;11.50;;;10.10;99.90;;;;;;784562;179;26464;-81
2024/03/16 08:11:33;;;;;;;15.10;10.67;;;10.10;99.90;;;;;;795723;179;26465;-81
2024/03/16 08:14:10;;;;;;;16.43;9.83;;;10.10;99.90;;;;;;788120;179;26479;-82
2024/03/16 08:16:40;;;;;;;15.73;9.57;;;10.00;99.90;;;;;;797687;178;26452;-81
2024/03/16 08:19:07;;;;;;;16.63;11.80;;;10.00;99.90;;;;;;793204;179;26502;-81
2024/03/16 08:21:38;;;;;;;16.00;10.03;;;10.10;99.90;;;;;;777434;184;27030;-81
2024/03/16 08:24:05;;;;;;;14.10;9.80;;;10.10;99.90;;;;;;801451;179;26463;-80
2024/03/16 08:26:37;;;;;;;13.53;9.73;;;10.30;99.90;;;;;;786117;179;26487;-80
2024/03/16 08:29:23;;;;;;;12.43;8.83;;;10.40;99.90;;;;;;795735;179;26460;-80
2024/03/16 08:31:55;;;;;;;13.63;7.57;;;10.40;99.90;;;;;;794998;179;27076;-80
2024/03/16 08:34:20;;;;;;;16.37;10.00;;;10.30;99.90;;;;;;789173;179;27067;-81
2024/03/16 08:36:52;;;;;;;12.63;7.60;;;10.10;99.90;;;;;;789331;180;26641;-79
2024/03/16 08:39:23;;;;;;;11.17;7.30;;;10.10;99.90;;;;;;793666;178;26464;-79
2024/03/16 08:41:51;;;;;;;10.23;6.67;;;9.90;99.90;;;;;;793053;179;26456;-79
2024/03/16 08:44:20;;;;;;;10.63;5.90;;;9.90;99.90;;;;;;792249;180;26467;-80
2024/03/16 08:46:48;;;;;;;8.07;5.30;;;9.90;99.90;;;;;;788785;180;26490;-80
2024/03/16 08:49:22;;;;;;;7.33;4.20;;;9.90;99.90;;;;;;788329;180;29012;-79
2024/03/16 08:52:00;;;;;;;5.40;3.33;;;10.00;99.90;;;;;;793898;179;26462;-79
2024/03/16 08:54:29;;;;;;;7.77;3.97;;;10.10;99.90;;;;;;788521;179;28086;-79
2024/03/16 08:57:01;;;;;;;7.50;4.07;;;10.20;99.90;;;;;;785701;180;26493;-79
2024/03/16 08:59:30;;;;;;;8.63;4.40;;;10.30;99.90;;;;;;788183;179;26458;-80
2024/03/16 09:01:59;;;;;;;6.77;5.03;;;10.50;99.90;;;;;;784408;182;26700;-82
2024/03/16 09:05:00;;;;;;;4.70;3.53;;;10.70;99.90;;;;;;793247;180;26471;-82
2024/03/16 09:07:36;;;;;;;4.33;3.60;;;10.70;99.90;;;;;;797800;180;26446;-80
2024/03/16 09:10:07;;;;;;;5.57;3.60;;;10.50;99.90;;;;;;792628;180;26479;-80
2024/03/16 09:15:12;;;;;;;7.23;4.17;;;10.20;99.90;;;;;;788350;179;26434;-81
2024/03/16 09:17:46;;;;;;;6.57;3.70;;;10.10;99.90;;;;;;774204;180;26511;-80
2024/03/16 09:20:13;;;;;;;8.47;3.17;;;10.10;99.90;;;;;;796666;180;27007;-81
2024/03/16 09:22:52;;;;;;;6.30;2.97;;;10.00;99.90;;;;;;794802;181;26527;-79
2024/03/16 09:25:23;;;;;;;7.80;3.37;;;9.90;99.90;;;;;;790299;180;26505;-80
2024/03/16 09:27:57;;;;;;;7.03;3.73;;;10.00;99.90;;;;;;787126;180;26493;-81
2024/03/16 09:30:24;;;;;;;5.40;3.20;;;10.00;99.90;;;;;;796371;180;27680;-80
2024/03/16 09:32:54;;;;;;;5.00;3.37;;;10.00;99.90;;;;;;792298;179;27747;-79
2024/03/16 09:35:29;;;;;;;5.17;3.50;;;10.00;99.90;;;;;;792297;180;26434;-80
2024/03/16 09:38:01;;;;;;;5.77;3.00;;;10.00;99.90;;;;;;794204;181;26507;-81
2024/03/16 09:40:33;;;;;;;5.47;2.77;;;10.10;99.90;;;;;;781577;183;26457;-80
2024/03/16 09:43:06;;;;;;;4.90;2.70;;;10.10;99.90;;;;;;789850;179;27053;-79
2024/03/16 09:48:15;;;;;;;5.00;2.50;;;9.90;99.90;;;;;;787782;180;26513;-80
2024/03/16 09:50:48;;;;;;;7.63;2.60;;;9.90;99.90;;;;;;789903;179;26440;-78
2024/03/16 09:53:34;;;;;;;5.27;2.20;;;9.90;99.90;;;;;;796825;180;26437;-80
2024/03/16 09:56:09;;;;;;;6.13;3.33;;;9.90;99.90;;;;;;784692;179;26460;-81
2024/03/16 09:58:48;;;;;;;7.37;3.73;;;10.00;99.90;;;;;;793050;180;26480;-79
2024/03/16 10:01:15;;;;;;;6.83;3.30;;;10.30;99.90;;;;;;789590;180;26438;-81
2024/03/16 10:03:47;;;;;;;9.73;3.50;;;10.40;99.90;;;;;;796047;179;26442;-80
2024/03/16 10:06:16;;;;;;;7.03;2.73;;;10.50;99.90;;;;;;788017;179;26473;-82
2024/03/16 10:08:46;;;;;;;4.50;2.90;;;10.60;99.90;;;;;;793463;179;26467;-78
2024/03/16 10:11:15;;;;;;;6.23;3.30;;;10.60;99.90;;;;;;788921;179;26451;-79
2024/03/16 10:13:58;;;;;;;8.63;3.97;;;10.60;99.90;;;;;;786076;179;27052;-80
2024/03/16 10:16:30;;;;;;;9.87;4.27;;;10.60;99.90;;;;;;791933;180;27009;-81
2024/03/16 10:18:58;;;;;;;6.37;3.27;;;10.50;99.90;;;;;;785900;180;26463;-81
2024/03/16 10:21:44;;;;;;;4.93;2.87;;;10.30;99.90;;;;;;793127;179;26424;-80
2024/03/16 10:24:31;;;;;;;4.90;2.83;;;10.20;99.90;;;;;;785950;180;26483;-79
2024/03/16 10:27:09;;;;;;;6.10;2.83;;;10.20;99.90;;;;;;788408;181;26466;-77
2024/03/16 10:29:39;;;;;;;6.13;2.83;;;10.10;99.90;;;;;;785142;181;26491;-80
2024/03/16 10:32:11;;;;;;;5.37;3.30;;;10.10;99.90;;;;;;795086;179;26446;-80
2024/03/16 10:34:37;;;;;;;6.17;2.80;;;10.10;99.90;;;;;;796332;180;26508;-82
2024/03/16 10:37:10;;;;;;;4.83;2.30;;;10.20;99.90;;;;;;790878;179;26459;-82
2024/03/16 10:39:40;;;;;;;5.03;2.57;;;10.00;99.90;;;;;;800286;178;26444;-84
2024/03/16 10:44:46;;;;;;;6.17;2.30;;;9.70;99.90;;;;;;798194;179;26446;-80
2024/03/16 10:47:15;;;;;;;5.03;2.60;;;9.60;99.90;;;;;;794087;179;26515;-81
2024/03/16 10:49:49;;;;;;;6.90;2.90;;;9.70;99.90;;;;;;790952;172;26494;-80
2024/03/16 10:52:18;;;;;;;7.20;2.80;;;9.90;99.90;;;;;;804504;176;26456;-80
2024/03/16 10:54:49;;;;;;;10.20;3.00;;;10.00;99.90;;;;;;813631;176;26983;-80
2024/03/16 10:57:18;;;;;;;4.50;2.40;;;10.10;99.90;;;;;;805928;177;27095;-80
2024/03/16 10:59:46;;;;;;;6.47;2.77;;;10.20;99.90;;;;;;811225;175;28039;-80
2024/03/16 11:02:13;;;;;;;5.27;2.43;;;10.40;99.90;;;;;;780745;182;26494;-80
2024/03/16 11:04:51;;;;;;;8.07;3.37;;;10.50;99.90;;;;;;805897;177;26449;-79
2024/03/16 11:07:18;;;;;;;6.30;2.47;;;10.60;99.90;;;;;;793749;179;26483;-80
2024/03/16 11:09:58;;;;;;;5.33;2.90;;;10.60;99.90;;;;;;795294;179;26582;-81
2024/03/16 11:12:33;;;;;;;7.67;3.47;;;10.40;99.90;;;;;;802970;176;26433;-80
2024/03/16 11:15:11;;;;;;;6.37;2.60;;;10.20;99.90;;;;;;783151;183;26496;-79
2024/03/16 11:17:51;;;;;;;2.90;2.10;;;10.10;99.90;;;;;;808235;177;26436;-80
2024/03/16 11:20:30;;;;;;;4.77;2.17;;;10.10;99.90;;;;;;806560;177;26525;-80
2024/03/16 11:22:58;;;;;;;9.37;2.17;;;9.90;99.90;;;;;;804869;176;26428;-81
2024/03/16 11:25:25;;;;;;;4.13;2.67;;;10.00;99.90;;;;;;778961;183;26494;-81
2024/03/16 11:27:52;;;;;;;5.93;2.50;;;10.00;99.90;;;;;;794264;180;27008;-78
2024/03/16 11:30:23;;;;;;;6.13;2.47;;;10.20;99.90;;;;;;806245;177;26614;-81
2024/03/16 11:33:06;;;;;;;5.63;2.30;;;10.20;99.90;;;;;;778999;182;26480;-79
2024/03/16 11:35:32;;;;;;;10.40;2.90;;;10.10;99.90;;;;;;806504;177;26478;-80
2024/03/16 11:38:11;;;;;;;4.57;2.87;;;10.20;99.90;;;;;;794051;180;26479;-80
2024/03/16 11:40:43;;;;;;;5.83;2.30;;;10.20;99.90;;;;;;796177;178;26982;-79
2024/03/16 11:43:09;;;;;;;7.87;2.33;;;10.20;99.90;;;;;;806182;177;26452;-80
2024/03/16 11:45:39;;;;;;;6.70;2.73;;;10.30;99.90;;;;;;804755;177;26466;-79
2024/03/16 11:48:07;;;;;;;6.70;2.10;;;10.60;99.90;;;;;;803729;177;26602;-82
2024/03/16 11:50:33;;;;;;;5.20;2.53;;;11.20;99.90;;;;;;807367;174;26995;-79
2024/03/16 11:53:06;;;;;;;6.53;2.40;;;11.70;99.90;;;;;;802488;177;26429;-77
2024/03/16 11:55:32;;;;;;;4.27;2.30;;;11.80;99.90;;;;;;806365;177;26429;-79
2024/03/16 11:58:01;;;;;;;6.73;2.27;;;11.80;99.90;;;;;;778776;180;26622;-80
2024/03/16 12:00:29;;;;;;;8.17;2.50;;;11.60;99.90;;;;;;783134;181;26469;-80
2024/03/16 12:02:55;;;;;;;6.67;2.33;;;11.50;99.90;;;;;;778053;183;26517;-80
2024/03/16 12:05:21;;;;;;;6.40;2.37;;;11.00;99.90;;;;;;779402;184;26481;-80
2024/03/16 12:07:48;;;;;;;7.90;3.03;;;11.00;99.90;;;;;;795058;180;26452;-80
2024/03/16 12:10:15;;;;;;;5.67;2.10;;;11.10;99.90;;;;;;807380;174;26429;-81
2024/03/16 12:12:41;;;;;;;7.00;2.30;;;11.20;99.90;;;;;;794627;180;26454;-78
2024/03/16 12:15:09;;;;;;;3.93;1.90;;;11.30;99.90;;;;;;809869;174;26446;-80
2024/03/16 12:17:36;;;;;;;4.17;2.23;;;11.80;99.90;;;;;;780960;183;26475;-81
2024/03/16 12:20:05;;;;;;;5.03;2.20;;;11.70;99.90;;;;;;806545;178;26434;-81
2024/03/16 12:22:30;;;;;;;5.10;2.67;;;11.60;99.90;;;;;;792362;179;26449;-80
2024/03/16 12:24:56;;;;;;;10.40;5.00;;;11.70;99.90;;;;;;800134;177;26450;-81
2024/03/16 12:27:23;;;;;;;7.30;2.63;;;12.20;99.90;;;;;;803539;177;26430;-80
2024/03/16 12:29:49;;;;;;;4.53;2.10;;;12.90;99.90;;;;;;803937;175;26462;-79
2024/03/16 12:32:16;;;;;;;14.20;6.83;;;13.10;99.90;;;;;;810993;177;26434;-79
2024/03/16 12:34:44;;;;;;;4.17;1.97;;;13.20;99.90;;;;;;810659;177;26437;-80
2024/03/16 12:37:11;;;;;;;4.73;1.97;;;12.80;99.90;;;;;;810628;174;26571;-80
2024/03/16 12:39:37;;;;;;;3.20;1.97;;;12.80;97.90;;;;;;801397;177;26467;-81
2024/03/16 12:42:05;;;;;;;3.37;1.80;;;12.20;97.90;;;;;;802866;174;26555;-80
2024/03/16 12:44:30;;;;;;;4.70;2.00;;;12.00;99.90;;;;;;801069;176;26439;-80
2024/03/16 12:46:58;;;;;;;5.40;3.20;;;12.00;99.90;;;;;;802118;177;26495;-80
2024/03/16 12:49:23;;;;;;;2.57;1.87;;;12.60;99.90;;;;;;809478;177;26454;-79
2024/03/16 12:51:51;;;;;;;4.53;1.90;;;12.50;98.10;;;;;;803154;177;26422;-80